createdAt,value
2018-09-01T00:01:45.701Z,91.90
2018-09-01T00:04:14.877Z,91.60
2018-09-01T00:06:44.029Z,91.70
2018-09-01T00:09:13.201Z,91.90
2018-09-01T00:11:42.377Z,91.80
2018-09-01T00:14:11.547Z,91.80
2018-09-01T00:16:40.693Z,91.70
2018-09-01T00:19:09.968Z,91.70
2018-09-01T00:21:39.107Z,91.70
2018-09-01T00:24:10.180Z,91.70
2018-09-01T00:26:41.736Z,91.70
2018-09-01T00:29:10.917Z,91.70
2018-09-01T00:31:40.049Z,91.90
2018-09-01T00:34:09.230Z,91.80
2018-09-01T00:36:38.369Z,91.90
2018-09-01T00:39:08.813Z,92.00
2018-09-01T00:41:37.969Z,91.90
2018-09-01T00:44:07.630Z,91.90
2018-09-01T00:46:36.766Z,91.70
2018-09-01T00:49:05.943Z,91.70
2018-09-01T00:51:35.101Z,91.80
2018-09-01T00:54:04.273Z,91.90
2018-09-01T00:56:33.449Z,91.80
2018-09-01T00:59:02.666Z,91.80
2018-09-01T01:01:31.889Z,91.80
2018-09-01T01:04:01.033Z,91.90
2018-09-01T01:06:30.190Z,91.80
2018-09-01T01:08:59.332Z,91.80
2018-09-01T01:11:28.505Z,91.80
2018-09-01T01:13:57.654Z,92.00
2018-09-01T01:16:26.881Z,91.90
2018-09-01T01:18:56.021Z,91.80
2018-09-01T01:21:25.207Z,91.80
2018-09-01T01:23:54.353Z,91.60
2018-09-01T01:26:23.513Z,91.60
2018-09-01T01:28:52.642Z,91.70
2018-09-01T01:31:21.802Z,91.60
2018-09-01T01:33:50.957Z,91.60
2018-09-01T01:36:20.137Z,91.80
2018-09-01T01:38:49.631Z,92.00
2018-09-01T01:41:18.781Z,92.10
2018-09-01T01:43:47.949Z,92.10
2018-09-01T01:46:17.124Z,91.80
2018-09-01T01:48:46.329Z,91.80
2018-09-01T01:51:15.501Z,91.50
2018-09-01T01:53:44.657Z,91.60
2018-09-01T01:56:13.817Z,91.80
2018-09-01T01:58:42.977Z,91.90
2018-09-01T02:01:12.150Z,91.80
2018-09-01T02:03:41.325Z,91.80
2018-09-01T02:06:10.499Z,91.80
2018-09-01T02:08:39.694Z,92.00
2018-09-01T02:11:08.869Z,91.90
2018-09-01T02:13:38.042Z,92.00
2018-09-01T02:16:07.220Z,91.70
2018-09-01T02:18:36.408Z,91.60
2018-09-01T02:21:05.565Z,91.50
2018-09-01T02:23:34.811Z,91.90
2018-09-01T02:26:04.112Z,92.00
2018-09-01T02:28:33.260Z,91.90
2018-09-01T02:31:02.405Z,92.00
2018-09-01T02:33:31.549Z,92.10
2018-09-01T02:36:00.697Z,92.00
2018-09-01T02:38:29.830Z,92.10
2018-09-01T02:40:58.973Z,91.90
2018-09-01T02:43:28.113Z,91.80
2018-09-01T02:45:57.253Z,91.40
2018-09-01T02:48:26.381Z,91.80
2018-09-01T02:50:55.533Z,91.70
2018-09-01T02:53:24.666Z,91.70
2018-09-01T02:55:53.832Z,91.50
2018-09-01T02:58:22.977Z,91.60
2018-09-01T03:00:57.329Z,91.80
2018-09-01T03:03:26.481Z,91.80
2018-09-01T03:05:55.633Z,91.80
2018-09-01T03:08:24.769Z,91.80
2018-09-01T03:10:53.906Z,91.90
2018-09-01T03:13:23.061Z,91.90
2018-09-01T03:15:58.560Z,91.90
2018-09-01T03:18:27.705Z,91.70
2018-09-01T03:20:56.845Z,91.70
2018-09-01T03:23:25.981Z,91.50
2018-09-01T03:25:55.145Z,91.60
2018-09-01T03:28:24.306Z,91.80
2018-09-01T03:30:53.483Z,91.70
2018-09-01T03:33:22.617Z,91.70
2018-09-01T03:35:51.841Z,91.80
2018-09-01T03:38:20.989Z,91.80
2018-09-01T03:40:50.140Z,92.10
2018-09-01T03:43:19.262Z,92.00
2018-09-01T03:45:48.433Z,91.70
2018-09-01T03:48:17.656Z,91.30
2018-09-01T03:50:46.806Z,91.50
2018-09-01T03:53:15.969Z,91.60
2018-09-01T03:55:45.141Z,91.60
2018-09-01T03:58:14.314Z,91.30
2018-09-01T04:00:43.485Z,91.50
2018-09-01T04:03:12.649Z,91.60
2018-09-01T04:05:41.837Z,91.60
2018-09-01T04:08:10.989Z,91.60
2018-09-01T04:10:40.241Z,91.50
2018-09-01T04:13:09.384Z,91.50
2018-09-01T04:15:38.811Z,91.20
2018-09-01T04:18:07.977Z,91.30
2018-09-01T04:20:37.130Z,91.50
2018-09-01T04:23:06.325Z,91.20
2018-09-01T04:25:38.561Z,91.30
2018-09-01T04:28:07.717Z,91.50
2018-09-01T04:30:36.860Z,91.60
2018-09-01T04:33:06.344Z,91.50
2018-09-01T04:35:35.474Z,91.60
2018-09-01T04:38:04.608Z,91.20
2018-09-01T04:40:33.748Z,91.40
2018-09-01T04:43:02.906Z,91.50
2018-09-01T04:45:32.031Z,91.50
2018-09-01T04:48:01.169Z,91.30
2018-09-01T04:50:30.373Z,91.30
2018-09-01T04:52:59.521Z,91.10
2018-09-01T04:55:28.848Z,91.20
2018-09-01T04:57:58.017Z,91.30
2018-09-01T05:00:27.525Z,91.30
2018-09-01T05:02:56.678Z,91.30
2018-09-01T05:05:25.838Z,91.10
2018-09-01T05:07:55.077Z,91.20
2018-09-01T05:10:24.217Z,91.30
2018-09-01T05:12:53.376Z,91.10
2018-09-01T05:15:22.557Z,91.20
2018-09-01T05:17:51.717Z,91.30
2018-09-01T05:20:20.865Z,91.40
2018-09-01T05:22:50.030Z,91.40
2018-09-01T05:25:19.197Z,91.60
2018-09-01T05:27:48.386Z,91.40
2018-09-01T05:30:17.549Z,91.40
2018-09-01T05:32:46.845Z,91.10
2018-09-01T05:35:16.009Z,91.10
2018-09-01T05:37:45.165Z,91.10
2018-09-01T05:40:14.637Z,91.30
2018-09-01T05:42:43.822Z,91.60
2018-09-01T05:45:12.989Z,91.10
2018-09-01T05:47:42.225Z,91.10
2018-09-01T05:50:11.397Z,91.40
2018-09-01T05:52:40.553Z,91.10
2018-09-01T05:55:09.854Z,91.30
2018-09-01T05:57:39.000Z,91.00
2018-09-01T06:00:08.897Z,90.80
2018-09-01T06:02:38.133Z,90.60
2018-09-01T06:05:07.810Z,90.70
2018-09-01T06:07:37.104Z,90.60
2018-09-01T06:10:06.321Z,90.70
2018-09-01T06:12:35.485Z,91.10
2018-09-01T06:15:04.637Z,91.00
2018-09-01T06:17:33.826Z,90.70
2018-09-01T06:20:02.956Z,90.70
2018-09-01T06:22:32.110Z,90.70
2018-09-01T06:25:01.324Z,90.90
2018-09-01T06:27:33.081Z,91.10
2018-09-01T06:30:02.275Z,91.20
2018-09-01T06:32:31.451Z,90.70
2018-09-01T06:35:00.621Z,90.60
2018-09-01T06:37:29.848Z,90.80
2018-09-01T06:39:58.956Z,91.20
2018-09-01T06:42:28.156Z,91.30
2018-09-01T06:44:57.309Z,91.10
2018-09-01T06:47:26.741Z,90.90
2018-09-01T06:49:55.889Z,91.00
2018-09-01T06:52:25.032Z,91.20
2018-09-01T06:54:54.205Z,91.20
2018-09-01T06:57:23.345Z,91.10
2018-09-01T06:59:52.517Z,90.60
2018-09-01T07:02:21.669Z,91.10
2018-09-01T07:04:50.829Z,91.40
2018-09-01T07:07:20.224Z,91.50
2018-09-01T07:09:49.373Z,91.40
2018-09-01T07:12:18.506Z,91.30
2018-09-01T07:14:47.665Z,91.30
2018-09-01T07:17:16.791Z,91.40
2018-09-01T07:19:45.954Z,91.10
2018-09-01T07:22:15.073Z,91.20
2018-09-01T07:24:44.225Z,91.20
2018-09-01T07:27:13.341Z,91.00
2018-09-01T07:29:42.482Z,90.70
2018-09-01T07:32:11.609Z,90.60
2018-09-01T07:34:40.754Z,90.40
2018-09-01T07:37:09.899Z,90.50
2018-09-01T07:39:39.056Z,90.80
2018-09-01T07:42:08.191Z,91.00
2018-09-01T07:44:37.338Z,91.10
2018-09-01T07:47:06.461Z,91.30
2018-09-01T07:49:35.593Z,91.00
2018-09-01T07:52:04.737Z,91.00
2018-09-01T07:54:33.865Z,91.00
2018-09-01T07:57:03.131Z,90.70
2018-09-01T07:59:32.261Z,90.60
2018-09-01T08:02:01.634Z,91.00
2018-09-01T08:04:30.765Z,91.00
2018-09-01T08:06:59.906Z,91.00
2018-09-01T08:09:29.028Z,91.20
2018-09-01T08:11:58.201Z,91.00
2018-09-01T08:14:27.409Z,91.00
2018-09-01T08:16:56.452Z,90.90
2018-09-01T08:19:25.647Z,91.00
2018-09-01T08:21:54.812Z,91.20
2018-09-01T08:24:24.001Z,91.50
2018-09-01T08:26:53.158Z,90.90
2018-09-01T08:29:22.322Z,90.70
2018-09-01T08:31:51.500Z,91.00
2018-09-01T08:34:20.642Z,91.20
2018-09-01T08:36:49.786Z,91.10
2018-09-01T08:39:18.953Z,91.30
2018-09-01T08:41:48.122Z,91.70
2018-09-01T08:44:17.273Z,91.20
2018-09-01T08:46:46.592Z,91.20
2018-09-01T08:49:15.745Z,91.30
2018-09-01T08:51:44.921Z,91.10
2018-09-01T08:54:14.087Z,90.90
2018-09-01T08:56:44.377Z,90.90
2018-09-01T08:59:13.461Z,90.50
2018-09-01T09:01:42.641Z,90.80
2018-09-01T09:04:11.805Z,91.30
2018-09-01T09:06:40.988Z,91.40
2018-09-01T09:09:10.192Z,91.60
2018-09-01T09:11:39.397Z,91.50
2018-09-01T09:14:08.581Z,91.50
2018-09-01T09:16:37.785Z,91.20
2018-09-01T09:19:06.964Z,91.10
2018-09-01T09:21:36.100Z,91.00
2018-09-01T09:24:05.381Z,91.00
2018-09-01T09:26:34.528Z,91.30
2018-09-01T09:29:03.769Z,91.30
2018-09-01T09:31:32.956Z,91.20
2018-09-01T09:34:02.169Z,91.30
2018-09-01T09:36:31.343Z,91.00
2018-09-01T09:39:00.570Z,91.10
2018-09-01T09:41:29.738Z,91.20
2018-09-01T09:43:58.861Z,91.50
2018-09-01T09:46:28.292Z,91.50
2018-09-01T09:48:57.488Z,91.20
2018-09-01T09:51:26.593Z,91.00
2018-09-01T09:53:56.058Z,90.90
2018-09-01T09:56:25.190Z,91.00
2018-09-01T09:58:54.318Z,91.00
2018-09-01T10:01:33.618Z,91.00
2018-09-01T10:04:02.888Z,90.90
2018-09-01T10:06:32.077Z,91.30
2018-09-01T10:09:01.314Z,91.40
2018-09-01T10:11:30.593Z,91.10
2018-09-01T10:13:59.730Z,91.10
2018-09-01T10:16:28.890Z,91.70
2018-09-01T10:18:58.034Z,91.30
2018-09-01T10:21:27.158Z,90.90
2018-09-01T10:23:56.309Z,91.30
2018-09-01T10:26:25.445Z,90.90
2018-09-01T10:28:54.568Z,90.90
2018-09-01T10:31:23.710Z,91.10
2018-09-01T10:33:54.076Z,91.40
2018-09-01T10:36:23.202Z,91.10
2018-09-01T10:38:52.324Z,91.20
2018-09-01T10:41:21.439Z,91.30
2018-09-01T10:43:50.865Z,90.70
2018-09-01T10:46:19.985Z,90.70
2018-09-01T10:48:49.117Z,91.00
2018-09-01T10:51:18.277Z,90.90
2018-09-01T10:53:47.433Z,91.10
2018-09-01T10:56:16.618Z,91.20
2018-09-01T10:58:45.837Z,91.40
2018-09-01T11:01:14.962Z,91.30
2018-09-01T11:03:44.108Z,91.00
2018-09-01T11:06:13.257Z,91.30
2018-09-01T11:08:42.423Z,91.30
2018-09-01T11:11:11.585Z,91.40
2018-09-01T11:13:40.777Z,91.50
2018-09-01T11:16:09.977Z,91.50
2018-09-01T11:18:39.125Z,91.20
2018-09-01T11:21:08.276Z,91.30
2018-09-01T11:23:37.436Z,91.30
2018-09-01T11:26:06.604Z,91.20
2018-09-01T11:28:35.825Z,91.40
2018-09-01T11:31:05.043Z,91.30
2018-09-01T11:33:34.194Z,91.00
2018-09-01T11:36:03.552Z,91.20
2018-09-01T11:38:32.721Z,91.20
2018-09-01T11:41:01.925Z,91.10
2018-09-01T11:43:31.111Z,91.10
2018-09-01T11:46:00.256Z,90.70
2018-09-01T11:48:29.400Z,90.70
2018-09-01T11:50:58.626Z,91.10
2018-09-01T11:53:27.812Z,91.40
2018-09-01T11:55:56.920Z,91.20
2018-09-01T11:58:26.101Z,91.60
2018-09-01T12:00:55.269Z,91.70
2018-09-01T12:03:24.421Z,91.70
2018-09-01T12:05:54.089Z,91.40
2018-09-01T12:08:23.249Z,91.30
2018-09-01T12:10:52.560Z,91.30
2018-09-01T12:13:21.693Z,91.20
2018-09-01T12:15:50.913Z,91.20
2018-09-01T12:18:20.280Z,91.50
2018-09-01T12:20:49.424Z,91.60
2018-09-01T12:23:18.547Z,91.40
2018-09-01T12:25:47.686Z,91.40
2018-09-01T12:28:16.908Z,91.50
2018-09-01T12:30:45.966Z,91.30
2018-09-01T12:33:15.137Z,91.40
2018-09-01T12:35:44.278Z,91.50
2018-09-01T12:38:13.402Z,91.10
2018-09-01T12:40:42.858Z,91.00
2018-09-01T12:43:11.993Z,90.70
2018-09-01T12:45:41.134Z,90.80
2018-09-01T12:48:10.336Z,91.10
2018-09-01T12:50:39.518Z,91.30
2018-09-01T12:53:08.718Z,91.00
2018-09-01T12:55:37.784Z,91.00
2018-09-01T12:58:06.949Z,91.40
2018-09-01T13:00:36.117Z,91.50
2018-09-01T13:03:05.213Z,91.60
2018-09-01T13:05:34.469Z,91.70
2018-09-01T13:08:03.690Z,91.80
2018-09-01T13:10:32.729Z,91.40
2018-09-01T13:13:01.864Z,90.80
2018-09-01T13:15:31.001Z,91.00
2018-09-01T13:18:00.145Z,91.20
2018-09-01T13:20:29.281Z,91.50
2018-09-01T13:22:58.418Z,91.40
2018-09-01T13:25:27.574Z,91.10
2018-09-01T13:27:56.725Z,91.10
2018-09-01T13:30:25.848Z,91.10
2018-09-01T13:32:55.023Z,91.40
2018-09-01T13:35:24.161Z,91.50
2018-09-01T13:37:53.757Z,91.10
2018-09-01T13:40:23.022Z,91.40
2018-09-01T13:42:52.153Z,91.70
2018-09-01T13:45:21.364Z,91.50
2018-09-01T13:47:50.487Z,91.40
2018-09-01T13:50:19.665Z,91.40
2018-09-01T13:52:48.848Z,91.70
2018-09-01T13:55:21.049Z,91.60
2018-09-01T13:57:50.217Z,91.40
2018-09-01T14:00:19.565Z,90.90
2018-09-01T14:02:48.733Z,91.20
2018-09-01T14:05:17.909Z,91.50
2018-09-01T14:07:47.226Z,91.60
2018-09-01T14:10:16.462Z,91.40
2018-09-01T14:12:45.639Z,91.30
2018-09-01T14:15:14.782Z,91.60
2018-09-01T14:17:43.945Z,91.50
2018-09-01T14:20:13.082Z,91.30
2018-09-01T14:22:42.237Z,91.20
2018-09-01T14:25:11.448Z,91.40
2018-09-01T14:27:40.574Z,91.40
2018-09-01T14:30:09.776Z,91.20
2018-09-01T14:32:39.060Z,91.20
2018-09-01T14:35:09.957Z,91.10
2018-09-01T14:37:39.231Z,91.20
2018-09-01T14:40:08.526Z,91.30
2018-09-01T14:42:37.677Z,91.00
2018-09-01T14:45:06.776Z,91.00
2018-09-01T14:47:35.911Z,91.20
2018-09-01T14:50:05.089Z,91.30
2018-09-01T14:52:34.249Z,91.50
2018-09-01T14:55:03.377Z,91.60
2018-09-01T14:57:38.781Z,91.50
2018-09-01T15:00:08.335Z,91.40
2018-09-01T15:02:37.523Z,91.50
2018-09-01T15:05:06.674Z,91.40
2018-09-01T15:07:35.817Z,91.30
2018-09-01T15:10:05.302Z,91.40
2018-09-01T15:12:34.431Z,91.30
2018-09-01T15:15:03.605Z,91.20
2018-09-01T15:17:32.778Z,91.10
2018-09-01T15:20:01.921Z,91.00
2018-09-01T15:22:31.065Z,91.00
2018-09-01T15:25:00.217Z,91.10
2018-09-01T15:27:29.375Z,90.80
2018-09-01T15:29:58.514Z,90.90
2018-09-01T15:32:27.852Z,91.00
2018-09-01T15:34:57.102Z,91.20
2018-09-01T15:37:26.257Z,91.10
2018-09-01T15:39:55.413Z,91.10
2018-09-01T15:42:24.581Z,91.10
2018-09-01T15:44:53.799Z,91.30
2018-09-01T15:47:22.865Z,91.20
2018-09-01T15:49:52.001Z,91.00
2018-09-01T15:52:21.235Z,91.00
2018-09-01T15:54:50.374Z,91.40
2018-09-01T15:57:19.521Z,91.40
2018-09-01T15:59:48.650Z,91.30
2018-09-01T16:02:17.805Z,91.10
2018-09-01T16:04:46.967Z,91.20
2018-09-01T16:07:16.129Z,91.20
2018-09-01T16:09:45.309Z,91.20
2018-09-01T16:12:14.481Z,91.00
2018-09-01T16:14:43.653Z,91.00
2018-09-01T16:17:12.801Z,91.10
2018-09-01T16:19:41.981Z,91.00
2018-09-01T16:22:11.220Z,90.90
2018-09-01T16:24:40.541Z,91.00
2018-09-01T16:27:09.665Z,91.60
2018-09-01T16:29:39.268Z,90.50
2018-09-01T16:32:08.421Z,90.70
2018-09-01T16:34:37.590Z,90.70
2018-09-01T16:37:06.739Z,90.70
2018-09-01T16:39:36.889Z,90.40
2018-09-01T16:42:06.257Z,90.30
2018-09-01T16:44:35.585Z,90.50
2018-09-01T16:47:05.125Z,90.80
2018-09-01T16:49:34.321Z,91.00
2018-09-01T16:52:03.598Z,91.20
2018-09-01T16:54:32.717Z,90.60
2018-09-01T16:57:01.902Z,90.60
2018-09-01T16:59:31.126Z,90.60
2018-09-01T17:02:00.290Z,90.80
2018-09-01T17:04:29.445Z,90.80
2018-09-01T17:06:58.613Z,90.70
2018-09-01T17:09:27.843Z,90.50
2018-09-01T17:11:57.197Z,90.40
2018-09-01T17:14:26.354Z,90.50
2018-09-01T17:16:55.818Z,90.70
2018-09-01T17:19:25.001Z,90.60
2018-09-01T17:21:54.176Z,90.70
2018-09-01T17:24:23.365Z,90.60
2018-09-01T17:26:52.517Z,90.90
2018-09-01T17:29:21.790Z,90.90
2018-09-01T17:31:51.165Z,90.70
2018-09-01T17:34:20.325Z,90.60
2018-09-01T17:36:49.507Z,91.00
2018-09-01T17:39:18.657Z,90.90
2018-09-01T17:41:47.796Z,91.00
2018-09-01T17:44:16.963Z,91.10
2018-09-01T17:46:46.164Z,91.10
2018-09-01T17:49:15.329Z,91.00
2018-09-01T17:51:44.513Z,91.10
2018-09-01T17:54:13.645Z,91.10
2018-09-01T17:56:42.866Z,91.00
2018-09-01T17:59:12.001Z,91.10
2018-09-01T18:01:41.261Z,91.30
2018-09-01T18:04:10.402Z,91.10
2018-09-01T18:06:39.529Z,90.90
2018-09-01T18:09:08.686Z,90.90
2018-09-01T18:11:37.868Z,91.00
2018-09-01T18:14:07.021Z,91.10
2018-09-01T18:16:36.200Z,91.10
2018-09-01T18:19:05.305Z,91.10
2018-09-01T18:21:34.445Z,91.20
2018-09-01T18:24:03.605Z,91.20
2018-09-01T18:26:32.736Z,91.40
2018-09-01T18:29:01.932Z,91.40
2018-09-01T18:31:31.073Z,91.50
2018-09-01T18:34:00.319Z,91.50
2018-09-01T18:36:29.503Z,91.60
2018-09-01T18:38:58.629Z,91.70
2018-09-01T18:41:27.829Z,91.70
2018-09-01T18:43:56.993Z,91.70
2018-09-01T18:46:26.232Z,91.60
2018-09-01T18:48:55.385Z,91.60
2018-09-01T18:51:24.554Z,91.60
2018-09-01T18:53:53.797Z,91.60
2018-09-01T18:56:24.228Z,91.50
2018-09-01T18:58:53.437Z,91.60
2018-09-01T19:01:22.638Z,91.70
2018-09-01T19:03:51.905Z,91.70
2018-09-01T19:06:21.417Z,91.80
2018-09-01T19:08:50.741Z,91.90
2018-09-01T19:11:19.997Z,91.90
2018-09-01T19:13:49.299Z,91.80
2018-09-01T19:16:18.366Z,91.80
2018-09-01T19:18:47.596Z,91.20
2018-09-01T19:21:16.818Z,90.70
2018-09-01T19:23:45.937Z,90.10
2018-09-01T19:26:15.189Z,90.40
2018-09-01T19:28:44.352Z,90.70
2018-09-01T19:31:13.605Z,91.00
2018-09-01T19:33:42.948Z,91.10
2018-09-01T19:36:12.157Z,91.20
2018-09-01T19:38:41.524Z,91.40
2018-09-01T19:41:10.713Z,91.60
2018-09-01T19:43:40.071Z,91.50
2018-09-01T19:46:09.425Z,91.50
2018-09-01T19:48:38.696Z,91.40
2018-09-01T19:51:07.931Z,91.40
2018-09-01T19:53:37.017Z,91.50
2018-09-01T19:56:06.265Z,91.50
2018-09-01T19:58:35.537Z,91.60
2018-09-01T20:01:05.337Z,91.60
2018-09-01T20:03:34.581Z,91.50
2018-09-01T20:06:03.832Z,91.60
2018-09-01T20:08:33.034Z,91.50
2018-09-01T20:11:02.257Z,91.40
2018-09-01T20:13:31.405Z,91.70
2018-09-01T20:16:00.706Z,91.80
2018-09-01T20:18:30.213Z,91.40
2018-09-01T20:20:59.534Z,91.40
2018-09-01T20:23:28.898Z,91.30
2018-09-01T20:25:58.112Z,91.40
2018-09-01T20:28:27.509Z,91.50
2018-09-01T20:30:56.685Z,91.50
2018-09-01T20:33:26.031Z,91.40
2018-09-01T20:35:55.177Z,91.40
2018-09-01T20:38:25.521Z,91.80
2018-09-01T20:40:54.666Z,91.50
2018-09-01T20:43:24.652Z,91.60
2018-09-01T20:45:53.877Z,91.60
2018-09-01T20:48:23.118Z,91.60
2018-09-01T20:50:52.281Z,91.60
2018-09-01T20:53:21.429Z,91.60
2018-09-01T20:55:50.655Z,91.60
2018-09-01T20:58:19.816Z,91.50
2018-09-01T21:00:48.965Z,91.50
2018-09-01T21:03:18.451Z,91.80
2018-09-01T21:05:47.653Z,91.80
2018-09-01T21:08:16.904Z,91.70
2018-09-01T21:10:46.150Z,91.80
2018-09-01T21:13:15.338Z,91.60
2018-09-01T21:15:44.554Z,91.70
2018-09-01T21:18:16.573Z,91.50
2018-09-01T21:20:45.745Z,91.70
2018-09-01T21:23:14.928Z,91.60
2018-09-01T21:25:44.148Z,91.50
2018-09-01T21:28:13.258Z,91.70
2018-09-01T21:30:42.841Z,91.60
2018-09-01T21:33:12.117Z,91.90
2018-09-01T21:35:41.310Z,91.70
2018-09-01T21:38:10.471Z,92.00
2018-09-01T21:40:39.702Z,92.00
2018-09-01T21:43:08.873Z,92.10
2018-09-01T21:45:38.033Z,92.10
2018-09-01T21:48:07.279Z,92.00
2018-09-01T21:50:36.461Z,92.00
2018-09-01T21:53:05.650Z,91.90
2018-09-01T21:55:34.810Z,92.00
2018-09-01T21:58:03.992Z,92.40
2018-09-01T22:00:33.150Z,91.90
2018-09-01T22:03:02.322Z,91.90
2018-09-01T22:05:31.465Z,91.90
2018-09-01T22:09:25.117Z,92.00
2018-09-01T22:11:54.272Z,91.90
2018-09-01T22:14:23.464Z,91.90
2018-09-01T22:16:52.719Z,91.80
2018-09-01T22:19:21.910Z,91.70
2018-09-01T22:21:51.073Z,91.80
2018-09-01T22:24:20.252Z,91.90
2018-09-01T22:26:49.513Z,91.90
2018-09-01T22:29:18.680Z,91.80
2018-09-01T22:31:47.869Z,91.60
2018-09-01T22:34:17.044Z,91.60
2018-09-01T22:36:46.225Z,91.60
2018-09-01T22:39:15.378Z,91.60
2018-09-01T22:41:44.537Z,91.60
2018-09-01T22:44:13.692Z,91.60
2018-09-01T22:46:42.825Z,91.50
2018-09-01T22:49:11.965Z,91.50
2018-09-01T22:51:41.114Z,91.70
2018-09-01T22:54:10.275Z,91.70
2018-09-01T22:56:39.409Z,91.70
2018-09-01T22:59:08.581Z,91.60
2018-09-01T23:01:37.775Z,91.70
2018-09-01T23:04:06.929Z,91.80
2018-09-01T23:06:36.077Z,91.90
2018-09-01T23:09:06.969Z,91.80
2018-09-01T23:11:36.110Z,91.90
2018-09-01T23:14:05.224Z,91.90
2018-09-01T23:16:34.345Z,91.90
2018-09-01T23:19:03.821Z,92.00
2018-09-01T23:21:32.961Z,92.00
2018-09-01T23:24:02.164Z,92.10
2018-09-01T23:26:31.312Z,92.00
2018-09-01T23:29:00.433Z,91.90
2018-09-01T23:31:29.561Z,91.80
2018-09-01T23:33:58.688Z,91.80
2018-09-01T23:36:27.864Z,91.90
2018-09-01T23:38:57.084Z,91.90
2018-09-01T23:41:26.221Z,91.80
2018-09-01T23:43:55.380Z,91.90
2018-09-01T23:46:24.572Z,91.80
2018-09-01T23:48:54.534Z,91.80
2018-09-01T23:51:23.702Z,92.00
2018-09-01T23:53:52.853Z,91.90
2018-09-01T23:56:22.017Z,91.90
2018-09-01T23:58:58.097Z,91.90
